createdAt,value
2019-01-17T00:00:39.641Z,4.50
2019-01-17T00:01:39.638Z,4.40
2019-01-17T00:02:39.639Z,4.30
2019-01-17T00:03:39.621Z,5.00
2019-01-17T00:04:39.633Z,4.30
2019-01-17T00:05:39.610Z,4.30
2019-01-17T00:06:39.576Z,4.80
2019-01-17T00:07:39.561Z,4.10
2019-01-17T00:08:39.555Z,5.30
2019-01-17T00:09:39.540Z,4.80
2019-01-17T00:10:39.563Z,4.50
2019-01-17T00:11:39.618Z,4.20
2019-01-17T00:12:39.524Z,4.90
2019-01-17T00:13:39.520Z,5.10
2019-01-17T00:14:39.492Z,4.50
2019-01-17T00:15:39.500Z,5.30
2019-01-17T00:16:39.470Z,4.80
2019-01-17T00:17:39.459Z,4.20
2019-01-17T00:18:39.442Z,4.40
2019-01-17T00:19:39.434Z,4.60
2019-01-17T00:20:39.426Z,4.40
2019-01-17T00:21:39.431Z,4.80
2019-01-17T00:22:39.441Z,5.20
2019-01-17T00:23:39.404Z,4.60
2019-01-17T00:24:39.394Z,5.00
2019-01-17T00:25:39.379Z,4.60
2019-01-17T00:26:39.361Z,4.40
2019-01-17T00:27:39.348Z,4.40
2019-01-17T00:28:39.349Z,4.90
2019-01-17T00:29:39.324Z,4.50
2019-01-17T00:30:39.354Z,4.40
2019-01-17T00:31:39.314Z,4.80
2019-01-17T00:32:39.299Z,4.60
2019-01-17T00:33:39.313Z,4.50
2019-01-17T00:34:39.285Z,4.60
2019-01-17T00:35:39.280Z,4.80
2019-01-17T00:36:39.253Z,4.10
2019-01-17T00:37:39.247Z,4.20
2019-01-17T00:38:39.225Z,4.40
2019-01-17T00:39:39.252Z,4.40
2019-01-17T00:40:39.209Z,4.40
2019-01-17T00:41:39.200Z,4.40
2019-01-17T00:42:39.203Z,4.50
2019-01-17T00:43:39.185Z,4.80
2019-01-17T00:44:39.572Z,4.60
2019-01-17T00:45:39.162Z,4.20
2019-01-17T00:46:39.136Z,4.70
2019-01-17T00:47:39.145Z,4.60
2019-01-17T00:48:39.143Z,4.10
2019-01-17T00:49:39.150Z,4.80
2019-01-17T00:50:39.099Z,4.30
2019-01-17T00:51:39.085Z,4.50
2019-01-17T00:52:39.074Z,4.00
2019-01-17T00:53:39.072Z,4.70
2019-01-17T00:54:39.074Z,4.30
2019-01-17T00:55:39.101Z,4.10
2019-01-17T00:56:39.043Z,4.80
2019-01-17T00:57:39.035Z,4.60
2019-01-17T00:58:39.018Z,4.20
2019-01-17T00:59:38.999Z,4.50
2019-01-17T01:00:38.990Z,4.20
2019-01-17T01:01:39.014Z,4.40
2019-01-17T01:02:38.985Z,4.30
2019-01-17T01:03:38.981Z,3.90
2019-01-17T01:04:38.951Z,4.20
2019-01-17T01:05:38.943Z,4.10
2019-01-17T01:06:38.934Z,4.50
2019-01-17T01:07:38.939Z,3.80
2019-01-17T01:08:38.910Z,4.30
2019-01-17T01:09:38.898Z,4.50
2019-01-17T01:10:38.885Z,4.90
2019-01-17T01:11:38.906Z,4.50
2019-01-17T01:12:38.859Z,4.20
2019-01-17T01:13:38.852Z,4.60
2019-01-17T01:14:38.841Z,4.20
2019-01-17T01:15:38.835Z,4.40
2019-01-17T01:16:38.846Z,4.40
2019-01-17T01:17:38.837Z,4.70
2019-01-17T01:18:38.797Z,4.10
2019-01-17T01:19:38.783Z,4.00
2019-01-17T01:20:38.783Z,4.40
2019-01-17T01:21:38.778Z,4.10
2019-01-17T01:22:38.785Z,3.90
2019-01-17T01:23:38.737Z,4.10
2019-01-17T01:24:38.731Z,4.40
2019-01-17T01:25:38.719Z,4.30
2019-01-17T01:26:38.722Z,4.40
2019-01-17T01:27:38.706Z,4.00
2019-01-17T01:28:38.710Z,3.80
2019-01-17T01:29:38.680Z,4.40
2019-01-17T01:30:38.674Z,4.40
2019-01-17T01:31:38.654Z,4.30
2019-01-17T01:32:38.643Z,3.80
2019-01-17T01:33:38.660Z,4.30
2019-01-17T01:34:38.638Z,4.10
2019-01-17T01:35:38.618Z,4.10
2019-01-17T01:36:38.606Z,4.70
2019-01-17T01:37:38.585Z,4.10
2019-01-17T01:38:38.593Z,4.00
2019-01-17T01:39:38.598Z,4.30
2019-01-17T01:40:38.566Z,4.60
2019-01-17T01:41:38.560Z,4.30
2019-01-17T01:42:38.528Z,4.40
2019-01-17T01:43:38.516Z,4.10
2019-01-17T01:44:38.509Z,3.90
2019-01-17T01:45:38.527Z,4.10
2019-01-17T01:46:38.493Z,3.70
2019-01-17T01:47:38.486Z,4.40
2019-01-17T01:48:38.477Z,3.80
2019-01-17T01:49:38.468Z,3.60
2019-01-17T01:50:38.449Z,3.90
2019-01-17T01:51:38.469Z,4.00
2019-01-17T01:52:38.432Z,4.50
2019-01-17T01:53:38.420Z,3.50
2019-01-17T01:54:38.419Z,3.60
2019-01-17T01:55:38.396Z,3.60
2019-01-17T01:56:38.421Z,3.90
2019-01-17T01:57:38.395Z,3.40
2019-01-17T01:58:38.365Z,4.00
2019-01-17T01:59:38.359Z,4.00
2019-01-17T02:00:38.342Z,4.20
2019-01-17T02:01:38.347Z,3.70
2019-01-17T02:02:38.333Z,4.10
2019-01-17T02:03:38.310Z,3.70
2019-01-17T02:04:38.290Z,4.10
2019-01-17T02:05:38.286Z,3.90
2019-01-17T02:06:38.310Z,3.50
2019-01-17T02:07:38.281Z,3.80
2019-01-17T02:08:38.254Z,3.80
2019-01-17T02:09:38.232Z,3.80
2019-01-17T02:10:38.234Z,4.20
2019-01-17T02:11:38.222Z,4.10
2019-01-17T02:12:38.237Z,3.90
2019-01-17T02:13:38.213Z,3.40
2019-01-17T02:14:38.196Z,3.30
2019-01-17T02:15:38.173Z,3.40
2019-01-17T02:16:38.192Z,3.50
2019-01-17T02:17:38.158Z,3.30
2019-01-17T02:18:38.148Z,3.90
2019-01-17T02:19:38.146Z,3.60
2019-01-17T02:20:38.141Z,3.80
2019-01-17T02:21:38.112Z,3.00
2019-01-17T02:22:38.119Z,3.40
2019-01-17T02:23:38.097Z,4.00
2019-01-17T02:24:38.085Z,4.00
2019-01-17T02:25:38.079Z,4.00
2019-01-17T02:26:38.057Z,3.70
2019-01-17T02:27:38.121Z,3.70
2019-01-17T02:28:38.060Z,3.40
2019-01-17T02:29:38.042Z,4.10
2019-01-17T02:30:38.121Z,4.00
2019-01-17T02:31:38.011Z,3.50
2019-01-17T02:32:38.015Z,3.60
2019-01-17T02:33:37.991Z,3.60
2019-01-17T02:34:37.969Z,3.70
2019-01-17T02:35:37.982Z,3.40
2019-01-17T02:36:37.946Z,3.80
2019-01-17T02:37:37.964Z,3.00
2019-01-17T02:38:37.936Z,3.60
2019-01-17T02:39:37.918Z,3.60
2019-01-17T02:40:37.899Z,4.00
2019-01-17T02:41:37.892Z,3.90
2019-01-17T02:42:37.901Z,3.50
2019-01-17T02:43:37.879Z,3.90
2019-01-17T02:44:39.211Z,3.30
2019-01-17T02:45:37.858Z,3.30
2019-01-17T02:46:37.836Z,3.10
2019-01-17T02:47:37.839Z,3.80
2019-01-17T02:48:37.813Z,3.50
2019-01-17T02:49:37.807Z,3.50
2019-01-17T02:50:37.800Z,3.90
2019-01-17T02:51:37.785Z,3.80
2019-01-17T02:52:37.802Z,4.20
2019-01-17T02:53:37.766Z,3.40
2019-01-17T02:54:37.743Z,3.50
2019-01-17T02:55:37.743Z,3.70
2019-01-17T02:56:37.735Z,3.70
2019-01-17T02:57:37.743Z,4.20
2019-01-17T02:58:37.703Z,3.80
2019-01-17T02:59:37.697Z,3.60
2019-01-17T03:00:37.680Z,3.90
2019-01-17T03:01:37.675Z,3.80
2019-01-17T03:02:37.726Z,3.60
2019-01-17T03:03:37.656Z,3.90
2019-01-17T03:04:37.655Z,3.90
2019-01-17T03:05:37.639Z,3.30
2019-01-17T03:06:37.622Z,3.60
2019-01-17T03:07:37.599Z,3.40
2019-01-17T03:08:37.679Z,3.70
2019-01-17T03:09:37.593Z,3.30
2019-01-17T03:10:37.578Z,3.50
2019-01-17T03:11:37.586Z,3.00
2019-01-17T03:12:37.601Z,3.80
2019-01-17T03:13:37.541Z,3.40
2019-01-17T03:14:37.539Z,3.70
2019-01-17T03:15:37.560Z,3.70
2019-01-17T03:16:37.510Z,3.90
2019-01-17T03:17:37.504Z,3.80
2019-01-17T03:18:37.484Z,3.50
2019-01-17T03:19:37.467Z,3.60
2019-01-17T03:20:37.470Z,3.70
2019-01-17T03:21:37.491Z,4.10
2019-01-17T03:22:37.467Z,3.50
2019-01-17T03:23:37.436Z,3.50
2019-01-17T03:24:42.972Z,3.30
2019-01-17T03:25:38.422Z,4.00
2019-01-17T03:26:37.402Z,3.70
2019-01-17T03:27:37.401Z,3.50
2019-01-17T03:28:37.386Z,3.80
2019-01-17T03:29:37.376Z,3.60
2019-01-17T03:30:37.366Z,3.80
2019-01-17T03:31:37.348Z,3.90
2019-01-17T03:32:37.378Z,3.60
2019-01-17T03:33:37.315Z,4.00
2019-01-17T03:34:37.337Z,3.40
2019-01-17T03:35:37.321Z,4.00
2019-01-17T03:36:37.301Z,3.90
2019-01-17T03:37:37.289Z,3.80
2019-01-17T03:38:37.303Z,3.50
2019-01-17T03:39:37.260Z,3.60
2019-01-17T03:40:37.248Z,3.30
2019-01-17T03:41:37.238Z,3.70
2019-01-17T03:42:37.269Z,4.00
2019-01-17T03:43:37.222Z,3.40
2019-01-17T03:44:37.206Z,3.90
2019-01-17T03:45:37.187Z,3.90
2019-01-17T03:46:37.197Z,3.60
2019-01-17T03:47:37.176Z,3.70
2019-01-17T03:48:37.207Z,3.50
2019-01-17T03:49:37.160Z,3.70
2019-01-17T03:50:37.140Z,3.80
2019-01-17T03:51:37.125Z,3.70
2019-01-17T03:52:37.121Z,3.80
2019-01-17T03:53:37.100Z,3.90
2019-01-17T03:54:37.141Z,4.20
2019-01-17T03:55:37.092Z,3.80
2019-01-17T03:56:37.106Z,3.70
2019-01-17T03:57:37.077Z,3.50
2019-01-17T03:58:37.065Z,3.90
2019-01-17T03:59:37.075Z,3.90
2019-01-17T04:00:37.041Z,3.70
2019-01-17T04:01:37.026Z,3.90
2019-01-17T04:02:37.002Z,3.20
2019-01-17T04:03:37.001Z,3.80
2019-01-17T04:04:36.983Z,4.00
2019-01-17T04:05:36.998Z,3.90
2019-01-17T04:06:36.970Z,3.80
2019-01-17T04:07:36.963Z,3.90
2019-01-17T04:08:36.943Z,4.00
2019-01-17T04:09:36.939Z,3.70
2019-01-17T04:10:36.916Z,3.60
2019-01-17T04:11:36.929Z,3.70
2019-01-17T04:12:36.914Z,3.60
2019-01-17T04:13:36.922Z,4.00
2019-01-17T04:14:36.887Z,4.00
2019-01-17T04:15:36.878Z,3.70
2019-01-17T04:16:36.850Z,4.10
2019-01-17T04:17:36.840Z,4.10
2019-01-17T04:18:36.838Z,4.30
2019-01-17T04:19:36.872Z,4.30
2019-01-17T04:20:36.819Z,4.20
2019-01-17T04:21:36.813Z,3.80
2019-01-17T04:22:36.788Z,3.70
2019-01-17T04:23:36.784Z,4.40
2019-01-17T04:24:36.770Z,3.80
2019-01-17T04:25:36.773Z,4.50
2019-01-17T04:26:36.755Z,3.80
2019-01-17T04:27:36.748Z,3.90
2019-01-17T04:28:36.759Z,4.10
2019-01-17T04:29:36.715Z,4.50
2019-01-17T04:30:36.697Z,4.20
2019-01-17T04:31:36.719Z,4.00
2019-01-17T04:32:36.691Z,4.80
2019-01-17T04:33:36.685Z,4.10
2019-01-17T04:34:36.668Z,3.80
2019-01-17T04:35:36.662Z,4.00
2019-01-17T04:36:36.638Z,3.80
2019-01-17T04:37:36.647Z,4.10
2019-01-17T04:38:36.627Z,4.20
2019-01-17T04:39:36.606Z,4.00
2019-01-17T04:40:36.622Z,4.10
2019-01-17T04:41:36.616Z,4.00
2019-01-17T04:42:36.597Z,3.50
2019-01-17T04:43:36.555Z,3.90
2019-01-17T04:44:36.553Z,4.40
2019-01-17T04:45:36.551Z,4.00
2019-01-17T04:46:36.586Z,4.10
2019-01-17T04:47:36.521Z,4.00
2019-01-17T04:48:36.521Z,3.90
2019-01-17T04:49:36.503Z,4.00
2019-01-17T04:50:36.510Z,4.10
2019-01-17T04:51:36.528Z,3.70
2019-01-17T04:52:36.480Z,4.30
2019-01-17T04:53:36.489Z,3.80
2019-01-17T04:54:36.445Z,4.30
2019-01-17T04:55:36.430Z,4.30
2019-01-17T04:56:36.417Z,4.30
2019-01-17T04:57:36.432Z,4.10
2019-01-17T04:58:36.420Z,3.90
2019-01-17T04:59:36.399Z,4.20
2019-01-17T05:00:36.380Z,4.40
2019-01-17T05:01:36.383Z,3.90
2019-01-17T05:02:36.347Z,4.30
2019-01-17T05:03:36.369Z,3.80
2019-01-17T05:04:36.337Z,4.30
2019-01-17T05:05:36.340Z,4.10
2019-01-17T05:06:36.307Z,4.10
2019-01-17T05:07:36.301Z,3.90
2019-01-17T05:08:36.327Z,4.30
2019-01-17T05:09:36.287Z,4.10
2019-01-17T05:10:36.292Z,4.80
2019-01-17T05:11:36.267Z,3.70
2019-01-17T05:12:36.250Z,3.80
2019-01-17T05:13:36.244Z,3.50
2019-01-17T05:14:36.247Z,4.00
2019-01-17T05:15:36.212Z,4.10
2019-01-17T05:16:36.201Z,3.50
2019-01-17T05:17:36.193Z,4.20
2019-01-17T05:18:36.202Z,3.90
2019-01-17T05:19:36.207Z,4.20
2019-01-17T05:20:36.152Z,3.70
2019-01-17T05:21:36.139Z,3.70
2019-01-17T05:22:36.136Z,4.20
2019-01-17T05:23:36.153Z,3.70
2019-01-17T05:24:36.132Z,3.90
2019-01-17T05:25:36.147Z,4.00
2019-01-17T05:26:36.086Z,4.00
2019-01-17T05:27:36.086Z,3.50
2019-01-17T05:28:36.095Z,3.70
2019-01-17T05:29:36.059Z,3.40
2019-01-17T05:30:36.083Z,3.50
2019-01-17T05:31:36.067Z,3.60
2019-01-17T05:32:36.771Z,3.70
2019-01-17T05:33:36.026Z,3.90
2019-01-17T05:34:39.514Z,3.80
2019-01-17T05:35:36.023Z,3.60
2019-01-17T05:36:35.999Z,3.30
2019-01-17T05:37:35.984Z,3.70
2019-01-17T05:38:35.957Z,3.40
2019-01-17T05:39:35.948Z,3.90
2019-01-17T05:40:35.933Z,3.70
2019-01-17T05:41:35.947Z,3.90
2019-01-17T05:42:35.919Z,3.60
2019-01-17T05:43:35.910Z,3.70
2019-01-17T05:44:35.907Z,3.30
2019-01-17T05:45:35.898Z,3.40
2019-01-17T05:46:35.907Z,3.70
2019-01-17T05:47:35.868Z,3.30
2019-01-17T05:48:35.846Z,3.20
2019-01-17T05:49:35.845Z,3.20
2019-01-17T05:50:35.843Z,3.40
2019-01-17T05:51:35.841Z,3.90
2019-01-17T05:52:35.836Z,3.30
2019-01-17T05:53:35.796Z,3.40
2019-01-17T05:54:35.791Z,3.40
2019-01-17T05:55:35.787Z,3.60
2019-01-17T05:56:35.769Z,3.70
2019-01-17T05:57:35.759Z,3.50
2019-01-17T05:58:35.769Z,3.50
2019-01-17T05:59:35.726Z,3.70
2019-01-17T06:00:35.723Z,3.40
2019-01-17T06:01:35.712Z,3.40
2019-01-17T06:02:35.707Z,3.50
2019-01-17T06:03:35.687Z,3.60
2019-01-17T06:04:35.702Z,3.60
2019-01-17T06:05:35.672Z,3.70
2019-01-17T06:06:35.645Z,3.30
2019-01-17T06:07:35.635Z,3.10
2019-01-17T06:08:35.650Z,3.30
2019-01-17T06:09:35.647Z,3.40
2019-01-17T06:10:35.608Z,3.40
2019-01-17T06:11:35.602Z,4.00
2019-01-17T06:12:35.593Z,3.50
2019-01-17T06:13:35.588Z,3.80
2019-01-17T06:14:35.591Z,3.80
2019-01-17T06:15:35.561Z,3.80
2019-01-17T06:16:35.550Z,3.70
2019-01-17T06:17:35.541Z,3.40
2019-01-17T06:18:35.522Z,3.30
2019-01-17T06:19:35.542Z,3.60
2019-01-17T06:20:35.498Z,3.70
2019-01-17T06:21:35.490Z,3.40
2019-01-17T06:22:35.488Z,3.50
2019-01-17T06:23:35.470Z,3.60
2019-01-17T06:24:35.455Z,3.00
2019-01-17T06:25:35.492Z,3.10
2019-01-17T06:26:35.434Z,3.10
2019-01-17T06:27:35.491Z,3.40
2019-01-17T06:28:35.417Z,3.50
2019-01-17T06:29:35.409Z,3.40
2019-01-17T06:30:35.386Z,4.10
2019-01-17T06:31:35.403Z,4.30
2019-01-17T06:32:35.396Z,3.80
2019-01-17T06:33:35.349Z,3.10
2019-01-17T06:34:35.350Z,3.20
2019-01-17T06:35:35.371Z,3.10
2019-01-17T06:36:35.339Z,3.40
2019-01-17T06:37:35.372Z,4.50
2019-01-17T06:38:35.305Z,6.20
2019-01-17T06:39:35.287Z,4.30
2019-01-17T06:40:35.304Z,3.90
2019-01-17T06:41:35.298Z,4.30
2019-01-17T06:42:35.280Z,3.60
2019-01-17T06:43:35.239Z,3.30
2019-01-17T06:44:35.245Z,3.60
2019-01-17T06:45:35.223Z,3.40
2019-01-17T06:46:35.249Z,2.90
2019-01-17T06:47:35.210Z,3.60
2019-01-17T06:48:35.208Z,3.80
2019-01-17T06:49:35.189Z,3.40
2019-01-17T06:50:35.174Z,4.20
2019-01-17T06:51:35.197Z,3.50
2019-01-17T06:52:35.160Z,3.00
2019-01-17T06:53:35.142Z,3.90
2019-01-17T06:54:35.137Z,3.60
2019-01-17T06:55:35.122Z,3.20
2019-01-17T06:56:35.109Z,5.50
2019-01-17T06:57:35.132Z,3.60
2019-01-17T06:58:35.094Z,3.60
2019-01-17T06:59:35.085Z,3.90
2019-01-17T07:00:35.077Z,4.00
2019-01-17T07:01:35.062Z,4.50
2019-01-17T07:02:35.068Z,3.40
2019-01-17T07:03:35.054Z,3.30
2019-01-17T07:04:35.017Z,3.90
2019-01-17T07:05:35.005Z,3.50
2019-01-17T07:06:35.024Z,3.30
2019-01-17T07:07:34.994Z,3.30
2019-01-17T07:08:34.978Z,3.10
2019-01-17T07:09:34.970Z,3.20
2019-01-17T07:10:34.952Z,3.30
2019-01-17T07:11:34.953Z,2.80
2019-01-17T07:12:34.960Z,3.60
2019-01-17T07:13:34.924Z,3.10
2019-01-17T07:14:34.905Z,3.10
2019-01-17T07:15:34.903Z,3.20
2019-01-17T07:16:34.884Z,3.00
2019-01-17T07:17:34.886Z,3.50
2019-01-17T07:18:34.869Z,3.80
2019-01-17T07:19:34.893Z,3.50
2019-01-17T07:20:34.845Z,3.10
2019-01-17T07:21:34.885Z,3.10
2019-01-17T07:22:34.848Z,2.90
2019-01-17T07:23:34.803Z,3.10
2019-01-17T07:24:34.800Z,3.00
2019-01-17T07:25:40.860Z,3.10
2019-01-17T07:26:35.806Z,2.60
2019-01-17T07:27:34.781Z,3.40
2019-01-17T07:28:34.781Z,2.80
2019-01-17T07:29:34.736Z,3.00
2019-01-17T07:30:34.738Z,2.90
2019-01-17T07:31:34.794Z,3.60
2019-01-17T07:32:34.722Z,3.00
2019-01-17T07:33:34.747Z,3.20
2019-01-17T07:34:34.680Z,3.20
2019-01-17T07:35:34.684Z,3.40
2019-01-17T07:36:34.675Z,3.10
2019-01-17T07:37:34.673Z,3.40
2019-01-17T07:38:34.657Z,3.20
2019-01-17T07:39:35.578Z,3.20
2019-01-17T07:40:34.630Z,3.40
2019-01-17T07:41:34.656Z,3.10
2019-01-17T07:42:34.642Z,2.90
2019-01-17T07:43:34.586Z,2.70
2019-01-17T07:44:34.598Z,3.40
2019-01-17T07:45:34.572Z,2.80
2019-01-17T07:46:34.556Z,2.70
2019-01-17T07:47:34.538Z,3.20
2019-01-17T07:48:34.578Z,2.60
2019-01-17T07:49:34.524Z,2.60
2019-01-17T07:50:34.517Z,2.90
2019-01-17T07:51:34.503Z,2.70
2019-01-17T07:52:34.510Z,2.80
2019-01-17T07:53:34.485Z,2.90
2019-01-17T07:54:34.494Z,2.90
2019-01-17T07:55:34.465Z,2.80
2019-01-17T07:56:34.468Z,2.60
2019-01-17T07:57:34.439Z,2.60
2019-01-17T07:58:34.452Z,2.70
2019-01-17T07:59:34.418Z,3.10
2019-01-17T08:00:34.428Z,2.90
2019-01-17T08:01:34.383Z,2.80
2019-01-17T08:02:34.385Z,2.90
2019-01-17T08:03:34.408Z,3.00
2019-01-17T08:04:34.382Z,3.00
2019-01-17T08:05:34.357Z,3.20
2019-01-17T08:06:34.502Z,3.30
2019-01-17T08:07:34.364Z,3.10
2019-01-17T08:08:34.322Z,2.90
2019-01-17T08:09:34.318Z,2.90
2019-01-17T08:10:34.289Z,2.80
2019-01-17T08:11:34.281Z,3.20
2019-01-17T08:12:34.291Z,2.90
2019-01-17T08:13:34.249Z,2.90
2019-01-17T08:14:34.253Z,2.70
2019-01-17T08:15:34.244Z,2.80
2019-01-17T08:16:34.227Z,2.40
2019-01-17T08:17:34.233Z,2.80
2019-01-17T08:18:34.214Z,2.80
2019-01-17T08:19:34.207Z,3.50
2019-01-17T08:20:34.198Z,2.60
2019-01-17T08:21:34.185Z,2.40
2019-01-17T08:22:34.176Z,2.60
2019-01-17T08:23:34.629Z,3.10
2019-01-17T08:24:34.138Z,2.50
2019-01-17T08:25:34.125Z,3.10
2019-01-17T08:26:34.127Z,2.70
2019-01-17T08:27:34.133Z,2.60
2019-01-17T08:28:34.105Z,3.00
2019-01-17T08:29:34.097Z,2.60
2019-01-17T08:30:34.075Z,2.60
2019-01-17T08:31:34.063Z,2.50
2019-01-17T08:32:34.082Z,2.40
2019-01-17T08:33:34.046Z,3.00
2019-01-17T08:34:34.030Z,2.40
2019-01-17T08:35:34.018Z,2.50
2019-01-17T08:36:34.015Z,2.80
2019-01-17T08:37:34.022Z,2.80
2019-01-17T08:38:34.004Z,2.90
2019-01-17T08:39:33.982Z,2.60
2019-01-17T08:40:33.975Z,2.80
2019-01-17T08:41:34.006Z,3.20
2019-01-17T08:42:33.982Z,2.70
2019-01-17T08:43:33.928Z,2.70
2019-01-17T08:44:33.934Z,2.50
2019-01-17T08:45:33.910Z,3.30
2019-01-17T08:46:33.923Z,3.10
2019-01-17T08:47:33.940Z,3.10
2019-01-17T08:48:33.905Z,3.00
2019-01-17T08:49:33.876Z,2.40
2019-01-17T08:50:33.878Z,2.60
2019-01-17T08:51:33.852Z,2.70
2019-01-17T08:52:33.855Z,2.70
2019-01-17T08:53:33.904Z,2.80
2019-01-17T08:54:33.812Z,2.80
2019-01-17T08:55:33.819Z,2.80
2019-01-17T08:56:33.792Z,2.30
2019-01-17T08:57:33.781Z,2.30
2019-01-17T08:58:33.800Z,2.30
2019-01-17T08:59:33.795Z,2.60
2019-01-17T09:00:33.751Z,2.50
2019-01-17T09:01:33.752Z,2.50
2019-01-17T09:02:33.744Z,2.30
2019-01-17T09:03:33.740Z,2.40
2019-01-17T09:04:33.715Z,2.70
2019-01-17T09:05:33.701Z,2.30
2019-01-17T09:06:33.694Z,2.40
2019-01-17T09:07:33.683Z,2.50
2019-01-17T09:08:33.688Z,2.20
2019-01-17T09:09:33.648Z,2.10
2019-01-17T09:10:33.643Z,2.50
2019-01-17T09:11:33.639Z,2.40
2019-01-17T09:12:33.651Z,2.00
2019-01-17T09:13:33.638Z,2.30
2019-01-17T09:14:33.619Z,2.60
2019-01-17T09:15:33.649Z,2.50
2019-01-17T09:16:33.578Z,2.50
2019-01-17T09:17:33.578Z,2.40
2019-01-17T09:18:33.563Z,2.40
2019-01-17T09:19:33.559Z,2.20
2019-01-17T09:20:33.533Z,2.40
2019-01-17T09:21:33.543Z,2.10
2019-01-17T09:22:33.516Z,2.40
2019-01-17T09:23:33.502Z,2.20
2019-01-17T09:24:33.499Z,2.20
2019-01-17T09:25:33.480Z,2.20
2019-01-17T09:26:33.492Z,2.30
2019-01-17T09:27:33.450Z,2.70
2019-01-17T09:28:33.483Z,2.50
2019-01-17T09:29:33.466Z,2.60
2019-01-17T09:30:33.437Z,2.20
2019-01-17T09:31:33.443Z,2.20
2019-01-17T09:32:33.413Z,2.20
2019-01-17T09:33:33.409Z,2.50
2019-01-17T09:34:33.378Z,2.40
2019-01-17T09:35:33.365Z,2.20
2019-01-17T09:36:33.403Z,2.00
2019-01-17T09:37:33.354Z,2.10
2019-01-17T09:38:33.334Z,2.10
2019-01-17T09:39:33.328Z,2.60
2019-01-17T09:40:33.311Z,2.50
2019-01-17T09:41:33.295Z,2.40
2019-01-17T09:42:33.341Z,2.40
2019-01-17T09:43:33.294Z,2.50
2019-01-17T09:44:33.277Z,2.40
2019-01-17T09:45:33.271Z,2.10
2019-01-17T09:46:33.247Z,2.40
2019-01-17T09:47:33.244Z,2.20
2019-01-17T09:48:33.254Z,1.70
2019-01-17T09:49:33.215Z,2.10
2019-01-17T09:50:33.212Z,2.10
2019-01-17T09:51:33.198Z,1.90
2019-01-17T09:52:33.188Z,2.40
2019-01-17T09:53:33.201Z,1.70
2019-01-17T09:54:33.189Z,1.90
2019-01-17T09:55:33.168Z,2.00
2019-01-17T09:56:33.143Z,2.00
2019-01-17T09:57:33.130Z,2.10
2019-01-17T09:58:33.149Z,1.90
2019-01-17T09:59:33.103Z,2.20
2019-01-17T10:00:33.103Z,2.00
2019-01-17T10:01:33.106Z,2.00
2019-01-17T10:02:33.079Z,2.10
2019-01-17T10:03:33.098Z,1.90
2019-01-17T10:04:33.083Z,2.20
2019-01-17T10:05:33.046Z,1.90
2019-01-17T10:06:33.047Z,2.10
2019-01-17T10:07:33.023Z,2.10
2019-01-17T10:08:33.015Z,2.20
2019-01-17T10:09:33.026Z,1.90
2019-01-17T10:10:32.988Z,1.90
2019-01-17T10:11:32.991Z,1.80
2019-01-17T10:12:32.960Z,1.90
2019-01-17T10:13:32.955Z,1.90
2019-01-17T10:14:32.945Z,2.10
2019-01-17T10:15:32.935Z,1.80
2019-01-17T10:16:32.950Z,1.60
2019-01-17T10:17:32.915Z,1.60
2019-01-17T10:18:32.924Z,1.70
2019-01-17T10:19:32.886Z,2.00
2019-01-17T10:20:32.877Z,2.00
2019-01-17T10:21:32.891Z,2.10
2019-01-17T10:22:32.867Z,1.60
2019-01-17T10:23:32.849Z,2.10
2019-01-17T10:24:32.821Z,2.00
2019-01-17T10:25:32.817Z,1.80
2019-01-17T10:26:32.809Z,1.80
2019-01-17T10:27:32.821Z,2.10
2019-01-17T10:28:32.796Z,2.00
2019-01-17T10:29:32.778Z,1.70
2019-01-17T10:30:32.759Z,1.60
2019-01-17T10:31:32.775Z,2.10
2019-01-17T10:32:32.732Z,2.10
2019-01-17T10:33:32.740Z,1.70
2019-01-17T10:34:32.768Z,2.00
2019-01-17T10:35:32.708Z,2.10
2019-01-17T10:36:32.708Z,1.60
2019-01-17T10:37:32.695Z,1.90
2019-01-17T10:38:32.671Z,1.80
2019-01-17T10:39:32.654Z,1.80
2019-01-17T10:40:32.708Z,1.90
2019-01-17T10:41:32.646Z,1.80
2019-01-17T10:42:32.709Z,1.50
2019-01-17T10:43:32.611Z,1.80
2019-01-17T10:44:32.601Z,2.10
2019-01-17T10:45:32.588Z,1.80
2019-01-17T10:46:32.607Z,1.70
2019-01-17T10:47:32.577Z,1.90
2019-01-17T10:48:32.590Z,2.10
2019-01-17T10:49:32.562Z,2.10
2019-01-17T10:50:32.566Z,1.60
2019-01-17T10:51:32.535Z,1.80
2019-01-17T10:52:32.555Z,2.00
2019-01-17T10:53:32.511Z,1.70
2019-01-17T10:54:32.541Z,1.40
2019-01-17T10:55:32.501Z,1.80
2019-01-17T10:56:32.484Z,1.90
2019-01-17T10:57:32.476Z,1.80
2019-01-17T10:58:32.496Z,2.30
2019-01-17T10:59:32.470Z,1.60
2019-01-17T11:00:32.430Z,1.60
2019-01-17T11:01:32.433Z,1.70
2019-01-17T11:02:32.411Z,1.70
2019-01-17T11:03:32.394Z,1.90
2019-01-17T11:04:32.408Z,2.10
2019-01-17T11:05:32.378Z,1.70
2019-01-17T11:06:32.374Z,1.80
2019-01-17T11:07:32.362Z,2.10
2019-01-17T11:08:32.346Z,1.60
2019-01-17T11:09:32.337Z,1.60
2019-01-17T11:10:32.355Z,1.80
2019-01-17T11:11:32.298Z,1.60
2019-01-17T11:12:32.313Z,1.50
2019-01-17T11:13:32.293Z,2.00
2019-01-17T11:14:32.281Z,1.90
2019-01-17T11:15:32.255Z,1.60
2019-01-17T11:16:32.295Z,1.60
2019-01-17T11:17:32.242Z,1.60
2019-01-17T11:18:32.245Z,1.50
2019-01-17T11:19:32.242Z,1.20
2019-01-17T11:20:32.242Z,1.90
2019-01-17T11:21:32.199Z,1.60
2019-01-17T11:22:32.206Z,1.70
2019-01-17T11:23:32.172Z,1.50
2019-01-17T11:24:32.160Z,1.50
2019-01-17T11:25:32.148Z,1.50
2019-01-17T11:26:34.443Z,1.70
2019-01-17T11:27:32.172Z,1.60
2019-01-17T11:28:32.129Z,1.50
2019-01-17T11:29:32.109Z,1.50
2019-01-17T11:30:32.108Z,1.80
2019-01-17T11:31:32.094Z,1.70
2019-01-17T11:32:32.095Z,1.40
2019-01-17T11:33:32.102Z,1.80
2019-01-17T11:34:32.055Z,1.90
2019-01-17T11:35:32.050Z,1.90
2019-01-17T11:36:32.038Z,2.30
2019-01-17T11:37:32.028Z,1.70
2019-01-17T11:38:32.021Z,1.90
2019-01-17T11:39:32.042Z,1.60
2019-01-17T11:40:32.014Z,1.70
2019-01-17T11:41:32.697Z,1.40
2019-01-17T11:42:31.970Z,1.50
2019-01-17T11:43:31.950Z,1.40
2019-01-17T11:44:31.973Z,1.40
2019-01-17T11:45:31.941Z,1.70
2019-01-17T11:46:31.918Z,2.00
2019-01-17T11:47:31.916Z,1.60
2019-01-17T11:48:31.902Z,1.70
2019-01-17T11:49:31.929Z,1.70
2019-01-17T11:50:31.896Z,1.60
2019-01-17T11:51:31.888Z,1.90
2019-01-17T11:52:31.865Z,1.40
2019-01-17T11:53:31.854Z,1.80
2019-01-17T11:54:31.829Z,1.60
2019-01-17T11:55:31.869Z,1.70
2019-01-17T11:56:31.811Z,2.00
2019-01-17T11:57:31.808Z,1.70
2019-01-17T11:58:31.804Z,1.70
2019-01-17T11:59:31.852Z,1.80
2019-01-17T12:00:31.774Z,1.80
2019-01-17T12:01:31.789Z,1.80
2019-01-17T12:02:31.756Z,1.50
2019-01-17T12:03:31.745Z,2.50
2019-01-17T12:04:31.739Z,1.90
2019-01-17T12:05:31.731Z,2.30
2019-01-17T12:06:31.731Z,2.40
2019-01-17T12:07:31.686Z,2.30
2019-01-17T12:08:31.683Z,2.60
2019-01-17T12:09:31.665Z,3.10
2019-01-17T12:10:31.670Z,3.00
2019-01-17T12:11:31.680Z,2.50
2019-01-17T12:12:31.652Z,2.60
2019-01-17T12:13:31.669Z,2.60
2019-01-17T12:14:31.618Z,2.80
2019-01-17T12:15:31.605Z,2.30
2019-01-17T12:16:31.610Z,2.90
2019-01-17T12:17:31.612Z,2.20
2019-01-17T12:18:31.595Z,1.90
2019-01-17T12:19:31.557Z,1.80
2019-01-17T12:20:31.577Z,1.60
2019-01-17T12:21:31.539Z,2.20
2019-01-17T12:22:31.550Z,2.10
2019-01-17T12:23:31.550Z,2.00
2019-01-17T12:24:31.526Z,1.80
2019-01-17T12:25:31.535Z,1.70
2019-01-17T12:26:31.487Z,1.70
2019-01-17T12:27:31.478Z,1.60
2019-01-17T12:28:31.520Z,1.50
2019-01-17T12:29:31.481Z,1.60
2019-01-17T12:30:31.454Z,1.80
2019-01-17T12:31:31.433Z,1.40
2019-01-17T12:32:31.420Z,1.50
2019-01-17T12:33:31.407Z,1.60
2019-01-17T12:34:31.430Z,1.90
2019-01-17T12:35:31.399Z,1.70
2019-01-17T12:36:31.382Z,1.70
2019-01-17T12:37:31.371Z,1.80
2019-01-17T12:38:31.352Z,1.50
2019-01-17T12:39:31.455Z,1.90
2019-01-17T12:40:31.333Z,1.70
2019-01-17T12:41:31.322Z,1.80
2019-01-17T12:42:31.357Z,1.80
2019-01-17T12:43:31.310Z,1.60
2019-01-17T12:44:31.299Z,1.60
2019-01-17T12:45:31.305Z,1.80
2019-01-17T12:46:31.272Z,2.00
2019-01-17T12:47:31.265Z,1.80
2019-01-17T12:48:31.271Z,1.60
2019-01-17T12:49:31.242Z,1.50
2019-01-17T12:50:31.865Z,1.70
2019-01-17T12:51:31.202Z,1.70
2019-01-17T12:52:31.193Z,1.50
2019-01-17T12:53:31.182Z,1.50
2019-01-17T12:54:31.180Z,1.40
2019-01-17T12:55:31.174Z,1.80
2019-01-17T12:56:31.187Z,1.90
2019-01-17T12:57:31.165Z,1.60
2019-01-17T12:58:31.138Z,1.30
2019-01-17T12:59:31.129Z,1.50
2019-01-17T13:00:31.129Z,1.50
2019-01-17T13:01:31.132Z,1.60
2019-01-17T13:02:31.098Z,1.20
2019-01-17T13:03:31.092Z,1.50
2019-01-17T13:04:31.076Z,1.50
2019-01-17T13:05:31.080Z,1.30
2019-01-17T13:06:31.048Z,1.90
2019-01-17T13:07:31.060Z,1.70
2019-01-17T13:08:31.075Z,1.70
2019-01-17T13:09:31.021Z,1.50
2019-01-17T13:10:31.024Z,1.20
2019-01-17T13:11:31.009Z,1.50
2019-01-17T13:12:30.982Z,1.60
2019-01-17T13:13:31.002Z,1.20
2019-01-17T13:14:30.981Z,1.40
2019-01-17T13:15:30.951Z,1.40
2019-01-17T13:16:30.967Z,1.40
2019-01-17T13:17:30.936Z,1.40
2019-01-17T13:18:30.919Z,1.20